createdAt,value
2023-03-12T00:01:02.942Z,27.68
2023-03-12T00:03:33.262Z,27.71
2023-03-12T00:06:10.628Z,27.70
2023-03-12T00:08:42.041Z,27.72
2023-03-12T00:11:14.188Z,27.76
2023-03-12T00:13:44.840Z,27.76
2023-03-12T00:16:16.897Z,27.79
2023-03-12T00:18:49.432Z,27.79
2023-03-12T00:21:20.110Z,27.81
2023-03-12T00:23:50.803Z,27.82
2023-03-12T00:26:22.089Z,27.84
2023-03-12T00:28:53.006Z,27.89
2023-03-12T00:31:24.963Z,27.92
2023-03-12T00:33:55.829Z,27.95
2023-03-12T00:36:30.295Z,27.96
2023-03-12T00:39:01.618Z,27.99
2023-03-12T00:41:32.374Z,28.01
2023-03-12T00:44:02.632Z,28.03
2023-03-12T00:46:32.981Z,28.06
2023-03-12T00:49:06.094Z,28.11
2023-03-12T00:51:36.493Z,28.13
2023-03-12T00:54:06.933Z,28.16
2023-03-12T00:56:37.383Z,28.19
2023-03-12T00:59:07.964Z,28.19
2023-03-12T01:01:38.192Z,28.19
2023-03-12T01:04:08.642Z,28.23
2023-03-12T01:06:38.848Z,28.29
2023-03-12T01:09:10.996Z,28.22
2023-03-12T01:11:41.278Z,28.16
2023-03-12T01:14:11.581Z,28.12
2023-03-12T01:16:41.915Z,28.12
2023-03-12T01:19:12.582Z,28.13
2023-03-12T01:21:43.249Z,28.15
2023-03-12T01:24:14.453Z,28.17
2023-03-12T01:26:44.603Z,28.21
2023-03-12T01:29:14.881Z,28.20
2023-03-12T01:31:45.201Z,28.12
2023-03-12T01:34:16.022Z,28.07
2023-03-12T01:36:47.941Z,28.06
2023-03-12T01:39:18.259Z,28.06
2023-03-12T01:41:48.490Z,28.04
2023-03-12T01:44:18.763Z,28.04
2023-03-12T01:46:49.137Z,28.03
2023-03-12T01:49:23.618Z,28.04
2023-03-12T01:51:57.920Z,28.05
2023-03-12T01:54:52.363Z,28.10
2023-03-12T01:57:36.286Z,28.12
2023-03-12T02:00:18.106Z,28.14
2023-03-12T02:02:51.328Z,28.20
2023-03-12T02:05:31.221Z,28.26
2023-03-12T02:08:02.570Z,28.34
2023-03-12T02:10:32.870Z,28.38
2023-03-12T02:13:03.091Z,28.44
2023-03-12T02:15:34.531Z,28.24
2023-03-12T02:18:05.678Z,28.52
2023-03-12T02:20:38.909Z,28.57
2023-03-12T02:23:15.721Z,28.62
2023-03-12T02:25:49.489Z,28.68
2023-03-12T02:28:21.551Z,28.71
2023-03-12T02:30:53.530Z,28.74
2023-03-12T02:33:23.973Z,28.78
2023-03-12T02:35:55.230Z,28.80
2023-03-12T02:38:30.273Z,28.84
2023-03-12T02:41:02.461Z,28.87
2023-03-12T02:43:32.844Z,28.90
2023-03-12T02:46:03.286Z,28.93
2023-03-12T02:48:33.761Z,28.96
2023-03-12T02:51:04.813Z,28.99
2023-03-12T02:53:35.342Z,29.03
2023-03-12T02:56:06.334Z,29.05
2023-03-12T02:58:37.707Z,29.08
2023-03-12T03:01:08.237Z,29.11
2023-03-12T03:03:39.139Z,29.14
2023-03-12T03:06:09.532Z,29.17
2023-03-12T03:08:39.732Z,29.19
2023-03-12T03:11:10.336Z,29.23
2023-03-12T03:13:41.356Z,29.25
2023-03-12T03:16:13.793Z,29.28
2023-03-12T03:18:44.169Z,29.30
2023-03-12T03:21:18.035Z,29.33
2023-03-12T03:23:50.133Z,29.35
2023-03-12T03:26:22.482Z,29.38
2023-03-12T03:28:53.643Z,29.38
2023-03-12T03:31:24.202Z,29.41
2023-03-12T03:33:54.537Z,29.44
2023-03-12T03:36:24.809Z,28.96
2023-03-12T03:39:06.394Z,29.49
2023-03-12T03:41:36.929Z,29.51
2023-03-12T03:44:09.150Z,29.51
2023-03-12T03:46:41.788Z,29.44
2023-03-12T03:49:13.813Z,29.42
2023-03-12T03:51:45.549Z,29.45
2023-03-12T03:54:19.629Z,29.49
2023-03-12T03:56:50.392Z,29.54
2023-03-12T03:59:21.217Z,29.59
2023-03-12T04:01:51.685Z,29.62
2023-03-12T04:04:22.112Z,29.66
2023-03-12T04:06:52.748Z,29.69
2023-03-12T04:09:23.430Z,29.71
2023-03-12T04:11:54.815Z,29.75
2023-03-12T04:14:25.414Z,29.78
2023-03-12T04:16:55.930Z,29.79
2023-03-12T04:19:26.682Z,29.83
2023-03-12T04:21:57.114Z,29.87
2023-03-12T04:24:27.790Z,29.89
2023-03-12T04:26:59.305Z,29.89
2023-03-12T04:29:30.848Z,29.90
2023-03-12T04:32:01.244Z,29.92
2023-03-12T04:34:32.023Z,29.96
2023-03-12T04:37:04.498Z,30.01
2023-03-12T04:39:35.175Z,30.05
2023-03-12T04:42:05.702Z,30.01
2023-03-12T04:44:36.922Z,29.95
2023-03-12T04:47:07.307Z,29.95
2023-03-12T04:49:39.641Z,29.99
2023-03-12T04:52:10.189Z,30.05
2023-03-12T04:54:41.039Z,30.10
2023-03-12T04:57:11.323Z,30.14
2023-03-12T04:59:41.624Z,30.18
2023-03-12T05:02:12.165Z,30.21
2023-03-12T05:04:43.823Z,30.25
2023-03-12T05:07:14.506Z,30.28
2023-03-12T05:09:45.739Z,30.31
2023-03-12T05:12:16.016Z,30.34
2023-03-12T05:14:46.395Z,30.36
2023-03-12T05:17:16.759Z,30.38
2023-03-12T05:19:46.985Z,30.41
2023-03-12T05:22:17.954Z,30.41
2023-03-12T05:24:48.282Z,30.33
2023-03-12T05:27:19.395Z,30.13
2023-03-12T05:29:49.782Z,29.84
2023-03-12T05:32:20.350Z,29.67
2023-03-12T05:34:51.616Z,29.56
2023-03-12T05:37:22.020Z,29.54
2023-03-12T05:39:55.377Z,29.43
2023-03-12T05:42:26.709Z,29.32
2023-03-12T05:44:58.604Z,29.23
2023-03-12T05:47:29.722Z,29.13
2023-03-12T05:50:00.288Z,29.07
2023-03-12T05:52:30.649Z,28.98
2023-03-12T05:55:01.864Z,28.93
2023-03-12T05:57:32.396Z,28.89
2023-03-12T06:00:04.593Z,28.83
2023-03-12T06:02:43.198Z,28.77
2023-03-12T06:05:14.036Z,28.75
2023-03-12T06:07:44.339Z,28.73
2023-03-12T06:10:14.948Z,28.70
2023-03-12T06:12:45.477Z,28.69
2023-03-12T06:15:16.530Z,28.64
2023-03-12T06:17:47.032Z,28.63
2023-03-12T06:20:17.512Z,28.60
2023-03-12T06:22:47.700Z,28.57
2023-03-12T06:25:18.221Z,28.54
2023-03-12T06:27:49.169Z,28.50
2023-03-12T06:30:19.754Z,28.49
2023-03-12T06:32:50.385Z,28.48
2023-03-12T06:35:20.696Z,28.47
2023-03-12T06:37:50.908Z,28.48
2023-03-12T06:40:21.357Z,28.47
2023-03-12T06:42:52.124Z,28.49
2023-03-12T06:45:22.613Z,28.49
2023-03-12T06:47:52.851Z,28.57
2023-03-12T06:50:23.002Z,28.59
2023-03-12T06:52:53.586Z,28.60
2023-03-12T06:55:24.320Z,28.60
2023-03-12T06:57:54.492Z,28.64
2023-03-12T07:00:24.845Z,28.66
2023-03-12T07:02:55.307Z,28.69
2023-03-12T07:05:28.799Z,28.71
2023-03-12T07:08:00.727Z,28.75
2023-03-12T07:10:31.150Z,28.77
2023-03-12T07:13:01.524Z,28.81
2023-03-12T07:15:32.303Z,28.85
2023-03-12T07:18:03.667Z,28.87
2023-03-12T07:20:35.452Z,28.88
2023-03-12T07:23:05.683Z,28.92
2023-03-12T07:25:39.974Z,28.92
2023-03-12T07:28:10.627Z,28.95
2023-03-12T07:30:41.117Z,28.95
2023-03-12T07:33:12.819Z,28.96
2023-03-12T07:35:43.221Z,29.02
2023-03-12T07:38:13.602Z,29.02
2023-03-12T07:40:43.968Z,29.06
2023-03-12T07:43:14.290Z,29.11
2023-03-12T07:45:44.723Z,29.16
2023-03-12T07:48:15.063Z,29.22
2023-03-12T07:50:46.083Z,29.25
2023-03-12T07:53:16.329Z,29.25
2023-03-12T07:55:48.003Z,29.31
2023-03-12T07:58:18.639Z,29.30
2023-03-12T08:00:49.132Z,29.35
2023-03-12T08:03:19.810Z,29.38
2023-03-12T08:06:00.289Z,29.43
2023-03-12T08:08:30.664Z,29.51
2023-03-12T08:11:01.825Z,29.55
2023-03-12T08:13:32.388Z,29.57
2023-03-12T08:16:02.885Z,29.61
2023-03-12T08:18:33.499Z,29.68
2023-03-12T08:21:03.751Z,29.94
2023-03-12T08:23:33.995Z,30.22
2023-03-12T08:26:23.863Z,30.53
2023-03-12T08:28:54.244Z,30.80
2023-03-12T08:31:24.725Z,30.99
2023-03-12T08:33:55.543Z,31.16
2023-03-12T08:36:25.856Z,31.31
2023-03-12T08:38:56.168Z,31.43
2023-03-12T08:41:26.496Z,31.57
2023-03-12T08:43:56.709Z,31.69
2023-03-12T08:46:27.025Z,31.79
2023-03-12T08:48:57.424Z,31.89
2023-03-12T08:51:27.836Z,31.97
2023-03-12T08:53:58.082Z,32.09
2023-03-12T08:56:28.309Z,32.17
2023-03-12T08:58:59.699Z,32.24
2023-03-12T09:01:29.910Z,32.32
2023-03-12T09:04:00.330Z,32.40
2023-03-12T09:06:30.687Z,32.46
2023-03-12T09:09:06.299Z,32.54
2023-03-12T09:11:37.373Z,32.62
2023-03-12T09:14:59.511Z,32.67
2023-03-12T09:16:57.964Z,32.74
2023-03-12T09:19:28.727Z,32.78
2023-03-12T09:21:59.220Z,32.85
2023-03-12T09:24:29.429Z,32.90
2023-03-12T09:26:59.696Z,32.91
2023-03-12T09:29:30.009Z,32.97
2023-03-12T09:32:00.575Z,33.01
2023-03-12T09:34:31.408Z,33.05
2023-03-12T09:37:01.571Z,33.09
2023-03-12T09:39:31.881Z,33.12
2023-03-12T09:42:02.498Z,33.17
2023-03-12T09:44:42.943Z,33.20
2023-03-12T09:47:33.247Z,33.24
2023-03-12T09:50:07.505Z,33.27
2023-03-12T09:52:41.590Z,33.28
2023-03-12T09:55:17.071Z,33.29
2023-03-12T09:57:48.104Z,33.31
2023-03-12T10:00:19.956Z,33.31
2023-03-12T10:02:53.128Z,33.32
2023-03-12T10:05:41.555Z,33.34
2023-03-12T10:08:24.762Z,33.34
2023-03-12T10:11:11.296Z,33.32
2023-03-12T10:13:50.557Z,33.33
2023-03-12T10:16:21.146Z,33.33
2023-03-12T10:19:05.757Z,33.30
2023-03-12T10:21:42.286Z,33.30
2023-03-12T10:24:19.362Z,33.12
2023-03-12T10:26:52.109Z,33.26
2023-03-12T10:29:28.012Z,33.25
2023-03-12T10:32:02.196Z,33.26
2023-03-12T10:34:47.748Z,33.24
2023-03-12T10:37:41.212Z,33.22
2023-03-12T10:40:16.203Z,33.20
2023-03-12T10:42:46.795Z,33.12
2023-03-12T10:45:25.939Z,32.80
2023-03-12T10:47:59.535Z,32.47
2023-03-12T10:50:31.907Z,32.29
2023-03-12T10:53:20.306Z,32.16
2023-03-12T10:56:00.748Z,32.03
2023-03-12T10:58:35.550Z,31.93
2023-03-12T11:01:07.499Z,31.90
2023-03-12T11:03:37.739Z,31.82
2023-03-12T11:06:09.350Z,31.78
2023-03-12T11:08:39.734Z,31.70
2023-03-12T11:11:11.746Z,31.68
2023-03-12T11:13:43.280Z,31.63
2023-03-12T11:16:19.638Z,31.56
2023-03-12T11:19:02.780Z,31.52
2023-03-12T11:21:35.060Z,31.47
2023-03-12T11:24:11.675Z,31.41
2023-03-12T11:27:05.464Z,31.41
2023-03-12T11:29:38.089Z,31.46
2023-03-12T11:32:16.029Z,31.48
2023-03-12T11:34:50.965Z,31.48
2023-03-12T11:37:33.631Z,31.50
2023-03-12T11:40:11.437Z,31.47
2023-03-12T11:42:56.406Z,31.45
2023-03-12T11:45:29.681Z,31.44
2023-03-12T11:48:06.546Z,31.43
2023-03-12T11:50:58.919Z,31.42
2023-03-12T11:53:31.935Z,31.40
2023-03-12T11:56:12.886Z,31.38
2023-03-12T11:58:43.601Z,31.40
2023-03-12T12:01:13.819Z,31.39
2023-03-12T12:03:56.520Z,31.40
2023-03-12T12:06:26.768Z,31.44
2023-03-12T12:09:00.246Z,31.46
2023-03-12T12:11:36.445Z,31.48
2023-03-12T12:14:13.226Z,31.53
2023-03-12T12:16:43.574Z,31.52
2023-03-12T12:19:14.318Z,31.52
2023-03-12T12:21:54.536Z,31.53
2023-03-12T12:24:44.260Z,31.52
2023-03-12T12:27:26.348Z,31.65
2023-03-12T12:29:59.744Z,31.73
2023-03-12T12:32:50.321Z,31.76
2023-03-12T12:35:25.251Z,31.78
2023-03-12T12:37:59.962Z,31.81
2023-03-12T12:40:38.924Z,31.82
2023-03-12T12:43:32.384Z,31.83
2023-03-12T12:46:07.319Z,31.82
2023-03-12T12:48:40.699Z,31.82
2023-03-12T12:51:11.288Z,31.80
2023-03-12T12:53:59.642Z,31.79
2023-03-12T12:56:43.525Z,31.78
2023-03-12T12:59:22.953Z,31.76
2023-03-12T13:01:55.779Z,31.75
2023-03-12T13:04:40.077Z,31.73
2023-03-12T13:07:16.036Z,31.71
2023-03-12T13:09:46.272Z,31.69
2023-03-12T13:12:20.391Z,31.68
2023-03-12T13:14:51.929Z,31.67
2023-03-12T13:17:30.301Z,31.65
2023-03-12T13:20:09.819Z,31.63
2023-03-12T13:22:40.465Z,31.61
2023-03-12T13:25:21.850Z,31.59
2023-03-12T13:27:59.941Z,31.57
2023-03-12T13:30:36.233Z,31.56
2023-03-12T13:33:07.914Z,31.53
2023-03-12T13:35:40.268Z,31.52
2023-03-12T13:38:19.598Z,31.50
2023-03-12T13:40:57.603Z,31.49
2023-03-12T13:43:42.089Z,31.46
2023-03-12T13:46:18.350Z,31.44
2023-03-12T13:48:49.387Z,31.43
2023-03-12T13:51:19.585Z,31.41
2023-03-12T13:54:01.223Z,31.40
2023-03-12T13:56:32.586Z,31.38
2023-03-12T13:59:07.610Z,31.36
2023-03-12T14:01:48.489Z,31.26
2023-03-12T14:04:48.017Z,31.10
2023-03-12T14:07:21.294Z,31.03
2023-03-12T14:10:08.900Z,30.94
2023-03-12T14:12:42.318Z,30.88
2023-03-12T14:15:26.652Z,30.86
2023-03-12T14:18:32.501Z,30.82
2023-03-12T14:21:04.495Z,30.77
2023-03-12T14:23:38.157Z,30.57
2023-03-12T14:26:11.001Z,30.34
2023-03-12T14:28:43.213Z,30.15
2023-03-12T14:31:21.046Z,30.06
2023-03-12T14:33:58.974Z,29.98
2023-03-12T14:36:49.199Z,29.82
2023-03-12T14:39:36.894Z,29.73
2023-03-12T14:42:09.329Z,29.64
2023-03-12T14:44:41.019Z,29.55
2023-03-12T14:47:13.014Z,29.47
2023-03-12T14:49:45.048Z,29.42
2023-03-12T14:52:16.048Z,29.35
2023-03-12T14:55:00.644Z,29.31
2023-03-12T14:57:30.960Z,29.27
2023-03-12T15:00:02.800Z,29.20
2023-03-12T15:02:33.852Z,29.16
2023-03-12T15:05:04.762Z,29.13
2023-03-12T15:07:41.033Z,29.08
2023-03-12T15:10:20.738Z,29.06
2023-03-12T15:12:52.335Z,29.03
2023-03-12T15:15:45.626Z,28.97
2023-03-12T15:18:20.665Z,28.91
2023-03-12T15:20:51.352Z,28.89
2023-03-12T15:23:22.921Z,28.87
2023-03-12T15:26:11.532Z,28.84
2023-03-12T15:28:42.141Z,28.81
2023-03-12T15:31:18.760Z,28.78
2023-03-12T15:34:01.547Z,28.75
2023-03-12T15:36:33.104Z,28.72
2023-03-12T15:39:07.241Z,28.69
2023-03-12T15:41:44.513Z,28.64
2023-03-12T15:44:20.192Z,28.62
2023-03-12T15:46:55.234Z,28.58
2023-03-12T15:49:28.675Z,28.57
2023-03-12T15:52:04.551Z,28.51
2023-03-12T15:54:35.072Z,28.44
2023-03-12T15:57:27.444Z,28.42
2023-03-12T16:00:15.673Z,28.34
2023-03-12T16:02:54.895Z,28.32
2023-03-12T16:05:29.787Z,28.26
2023-03-12T16:08:02.355Z,28.23
2023-03-12T16:10:35.788Z,28.17
2023-03-12T16:13:06.725Z,28.11
2023-03-12T16:15:40.593Z,28.06
2023-03-12T16:18:21.502Z,28.05
2023-03-12T16:20:53.785Z,27.97
2023-03-12T16:23:24.198Z,27.97
2023-03-12T16:25:56.621Z,27.94
2023-03-12T16:28:27.475Z,27.93
2023-03-12T16:30:57.739Z,27.90
2023-03-12T16:33:27.967Z,27.92
2023-03-12T16:35:58.946Z,27.86
2023-03-12T16:38:30.039Z,27.85
2023-03-12T16:41:00.659Z,27.83
2023-03-12T16:43:38.637Z,27.80
2023-03-12T16:46:12.370Z,27.76
2023-03-12T16:48:42.592Z,27.72
2023-03-12T16:51:16.920Z,27.74
2023-03-12T16:53:53.177Z,27.72
2023-03-12T16:56:32.165Z,27.72
2023-03-12T16:59:05.391Z,27.72
2023-03-12T17:01:36.492Z,27.72
2023-03-12T17:04:07.179Z,27.70
2023-03-12T17:06:38.323Z,27.68
2023-03-12T17:09:09.876Z,27.67
2023-03-12T17:11:40.808Z,27.63
2023-03-12T17:14:30.259Z,27.66
2023-03-12T17:17:01.282Z,27.63
2023-03-12T17:19:31.553Z,27.59
2023-03-12T17:22:02.431Z,27.60
2023-03-12T17:24:32.571Z,27.60
2023-03-12T17:27:02.877Z,27.59
2023-03-12T17:29:33.473Z,27.56
2023-03-12T17:32:03.933Z,27.57
2023-03-12T17:34:34.962Z,27.54
2023-03-12T17:37:05.282Z,27.53
2023-03-12T17:39:36.449Z,27.54
2023-03-12T17:42:06.690Z,27.51
2023-03-12T17:44:38.128Z,27.50
2023-03-12T17:47:08.390Z,27.51
2023-03-12T17:49:38.739Z,27.48
2023-03-12T17:52:09.256Z,27.47
2023-03-12T17:54:39.489Z,27.46
2023-03-12T17:57:09.729Z,27.44
2023-03-12T17:59:40.039Z,27.43
2023-03-12T18:02:11.988Z,27.42
2023-03-12T18:04:42.280Z,27.46
2023-03-12T18:07:18.409Z,27.42
2023-03-12T18:10:07.984Z,27.38
2023-03-12T18:12:39.629Z,27.38
2023-03-12T18:15:10.522Z,27.39
2023-03-12T18:17:41.318Z,27.35
2023-03-12T18:20:28.759Z,27.36
2023-03-12T18:23:02.603Z,27.35
2023-03-12T18:25:32.851Z,27.32
2023-03-12T18:28:03.042Z,27.31
2023-03-12T18:30:33.715Z,27.28
2023-03-12T18:33:03.963Z,27.28
2023-03-12T18:35:34.279Z,27.26
2023-03-12T18:38:04.621Z,27.28
2023-03-12T18:40:34.914Z,27.28
2023-03-12T18:43:05.227Z,27.26
2023-03-12T18:45:35.744Z,27.28
2023-03-12T18:48:06.160Z,27.26
2023-03-12T18:50:36.436Z,27.22
2023-03-12T18:53:06.748Z,27.18
2023-03-12T18:55:36.956Z,27.18
2023-03-12T18:58:07.026Z,27.18
2023-03-12T19:00:37.067Z,27.17
2023-03-12T19:03:07.392Z,27.18
2023-03-12T19:05:37.547Z,27.16
2023-03-12T19:08:07.603Z,27.17
2023-03-12T19:10:37.639Z,27.13
2023-03-12T19:13:07.717Z,27.12
2023-03-12T19:16:05.392Z,27.10
2023-03-12T19:18:55.685Z,27.11
2023-03-12T19:21:26.094Z,27.08
2023-03-12T19:23:59.476Z,27.09
2023-03-12T19:26:29.523Z,27.07
2023-03-12T19:28:59.687Z,27.05
2023-03-12T19:31:30.008Z,27.07
2023-03-12T19:34:00.630Z,27.05
2023-03-12T19:36:30.842Z,27.03
2023-03-12T19:39:02.463Z,27.02
2023-03-12T19:41:34.828Z,27.01
2023-03-12T19:44:05.059Z,27.01
2023-03-12T19:46:35.190Z,26.97
2023-03-12T19:49:05.821Z,26.96
2023-03-12T19:51:35.930Z,26.96
2023-03-12T19:54:06.148Z,26.94
2023-03-12T19:56:36.948Z,26.92
2023-03-12T19:59:07.400Z,26.93
2023-03-12T20:01:39.486Z,26.93
2023-03-12T20:04:10.144Z,26.89
2023-03-12T20:06:40.597Z,26.86
2023-03-12T20:09:10.631Z,26.82
2023-03-12T20:11:40.859Z,26.83
2023-03-12T20:14:11.108Z,26.82
2023-03-12T20:16:41.738Z,26.83
2023-03-12T20:19:11.928Z,26.81
2023-03-12T20:21:42.239Z,26.77
2023-03-12T20:24:12.711Z,26.78
2023-03-12T20:26:42.817Z,26.79
2023-03-12T20:29:12.956Z,26.78
2023-03-12T20:31:44.578Z,26.76
2023-03-12T20:34:15.091Z,26.76
2023-03-12T20:36:45.195Z,26.73
2023-03-12T20:39:15.362Z,26.71
2023-03-12T20:41:45.557Z,26.71
2023-03-12T20:44:15.768Z,26.70
2023-03-12T20:46:46.220Z,26.65
2023-03-12T20:49:16.675Z,26.65
2023-03-12T20:51:47.445Z,26.63
2023-03-12T20:54:18.116Z,26.61
2023-03-12T20:56:48.484Z,26.06
2023-03-12T20:59:18.616Z,26.58
2023-03-12T21:01:49.150Z,26.59
2023-03-12T21:04:19.410Z,26.55
2023-03-12T21:06:51.672Z,26.51
2023-03-12T21:09:23.097Z,26.53
2023-03-12T21:11:53.240Z,26.54
2023-03-12T21:14:23.409Z,26.56
2023-03-12T21:16:53.693Z,26.51
2023-03-12T21:19:23.957Z,26.52
2023-03-12T21:21:54.426Z,26.50
2023-03-12T21:24:24.629Z,26.50
2023-03-12T21:26:55.149Z,26.50
2023-03-12T21:29:25.315Z,26.60
2023-03-12T21:31:56.161Z,26.68
2023-03-12T21:34:26.223Z,26.74
2023-03-12T21:36:56.485Z,26.83
2023-03-12T21:39:28.494Z,26.86
2023-03-12T21:41:58.566Z,26.83
2023-03-12T21:44:28.618Z,26.76
2023-03-12T21:46:58.749Z,26.73
2023-03-12T21:49:29.060Z,26.67
2023-03-12T21:51:59.159Z,26.64
2023-03-12T21:54:38.840Z,26.63
2023-03-12T21:57:09.023Z,26.61
2023-03-12T21:59:39.494Z,26.56
2023-03-12T22:02:13.199Z,26.53
2023-03-12T22:04:43.799Z,26.56
2023-03-12T22:07:14.017Z,26.64
2023-03-12T22:09:44.100Z,26.71
2023-03-12T22:12:14.627Z,26.79
2023-03-12T22:14:44.562Z,26.84
2023-03-12T22:17:14.676Z,26.87
2023-03-12T22:19:45.170Z,26.81
2023-03-12T22:22:15.320Z,26.76
2023-03-12T22:24:45.308Z,26.69
2023-03-12T22:27:15.949Z,26.64
2023-03-12T22:29:45.989Z,26.60
2023-03-12T22:32:16.017Z,26.57
2023-03-12T22:34:46.109Z,26.54
2023-03-12T22:37:16.665Z,26.50
2023-03-12T22:39:46.677Z,26.55
2023-03-12T22:42:17.169Z,26.61
2023-03-12T22:44:47.624Z,26.65
2023-03-12T22:47:17.717Z,26.72
2023-03-12T22:49:48.171Z,26.78
2023-03-12T22:52:18.271Z,26.84
2023-03-12T22:54:48.817Z,26.79
2023-03-12T22:57:18.855Z,26.72
2023-03-12T22:59:49.606Z,26.68
2023-03-12T23:02:19.499Z,26.78
2023-03-12T23:04:49.614Z,26.91
2023-03-12T23:07:19.732Z,26.99
2023-03-12T23:09:49.821Z,27.08
2023-03-12T23:12:19.879Z,27.19
2023-03-12T23:14:49.978Z,27.29
2023-03-12T23:17:20.290Z,27.34
2023-03-12T23:19:50.353Z,27.38
2023-03-12T23:22:20.611Z,26.88
2023-03-12T23:24:51.141Z,27.46
2023-03-12T23:27:21.156Z,27.49
2023-03-12T23:29:51.164Z,27.55
2023-03-12T23:32:21.169Z,27.59
2023-03-12T23:34:51.317Z,27.62
2023-03-12T23:37:21.860Z,27.67
2023-03-12T23:39:54.781Z,27.69
2023-03-12T23:42:25.276Z,27.72
2023-03-12T23:44:55.370Z,27.78
2023-03-12T23:47:26.109Z,27.84
2023-03-12T23:49:56.236Z,27.87
2023-03-12T23:52:29.544Z,27.91
2023-03-12T23:54:59.548Z,27.97
2023-03-12T23:57:29.620Z,28.01
2023-03-12T23:59:59.561Z,28.06
